sensor_id;sensor_type;location;lat;lon;timestamp;P1;durP1;ratioP1;P2;durP2;ratioP2
4895;SDS011;2463;49.948;8.472;2022-09-09T00:00:40;91.55;;;4.80;;
4895;SDS011;2463;49.948;8.472;2022-09-09T00:05:46;91.30;;;4.40;;
4895;SDS011;2463;49.948;8.472;2022-09-09T00:08:19;93.57;;;4.90;;
4895;SDS011;2463;49.948;8.472;2022-09-09T00:10:51;98.80;;;4.55;;
4895;SDS011;2463;49.948;8.472;2022-09-09T00:13:34;92.82;;;4.75;;
4895;SDS011;2463;49.948;8.472;2022-09-09T00:16:15;92.68;;;4.35;;
4895;SDS011;2463;49.948;8.472;2022-09-09T00:21:47;93.35;;;5.65;;
4895;SDS011;2463;49.948;8.472;2022-09-09T00:24:46;93.13;;;4.97;;
4895;SDS011;2463;49.948;8.472;2022-09-09T00:27:32;92.90;;;5.15;;
4895;SDS011;2463;49.948;8.472;2022-09-09T00:32:48;93.10;;;4.68;;
4895;SDS011;2463;49.948;8.472;2022-09-09T00:35:22;95.00;;;5.32;;
4895;SDS011;2463;49.948;8.472;2022-09-09T00:38:03;93.18;;;5.13;;
4895;SDS011;2463;49.948;8.472;2022-09-09T00:48:26;92.82;;;4.85;;
4895;SDS011;2463;49.948;8.472;2022-09-09T00:51:09;92.28;;;4.95;;
4895;SDS011;2463;49.948;8.472;2022-09-09T00:56:38;93.40;;;5.70;;
4895;SDS011;2463;49.948;8.472;2022-09-09T01:01:58;94.13;;;4.88;;
4895;SDS011;2463;49.948;8.472;2022-09-09T01:04:28;94.50;;;4.97;;
4895;SDS011;2463;49.948;8.472;2022-09-09T01:07:10;92.30;;;4.82;;
4895;SDS011;2463;49.948;8.472;2022-09-09T01:09:56;91.97;;;4.65;;
4895;SDS011;2463;49.948;8.472;2022-09-09T01:15:22;94.80;;;5.00;;
4895;SDS011;2463;49.948;8.472;2022-09-09T01:18:03;94.97;;;5.40;;
4895;SDS011;2463;49.948;8.472;2022-09-09T01:28:55;94.05;;;5.43;;
4895;SDS011;2463;49.948;8.472;2022-09-09T01:31:23;97.38;;;5.55;;
4895;SDS011;2463;49.948;8.472;2022-09-09T01:33:54;95.53;;;5.32;;
4895;SDS011;2463;49.948;8.472;2022-09-09T01:36:24;94.65;;;5.32;;
4895;SDS011;2463;49.948;8.472;2022-09-09T01:39:04;95.22;;;5.47;;
4895;SDS011;2463;49.948;8.472;2022-09-09T01:41:31;99.40;;;5.15;;
4895;SDS011;2463;49.948;8.472;2022-09-09T01:43:58;94.22;;;5.40;;
4895;SDS011;2463;49.948;8.472;2022-09-09T01:46:25;96.72;;;5.40;;
4895;SDS011;2463;49.948;8.472;2022-09-09T01:48:52;95.57;;;5.40;;
4895;SDS011;2463;49.948;8.472;2022-09-09T01:51:19;94.72;;;5.53;;
4895;SDS011;2463;49.948;8.472;2022-09-09T01:53:47;95.60;;;5.43;;
4895;SDS011;2463;49.948;8.472;2022-09-09T01:56:26;93.82;;;5.70;;
4895;SDS011;2463;49.948;8.472;2022-09-09T02:04:40;95.35;;;5.35;;
4895;SDS011;2463;49.948;8.472;2022-09-09T02:10:08;93.90;;;5.18;;
4895;SDS011;2463;49.948;8.472;2022-09-09T02:12:44;100.97;;;5.70;;
4895;SDS011;2463;49.948;8.472;2022-09-09T02:15:18;93.45;;;5.70;;
4895;SDS011;2463;49.948;8.472;2022-09-09T02:17:52;99.03;;;5.40;;
4895;SDS011;2463;49.948;8.472;2022-09-09T02:20:23;93.93;;;5.40;;
4895;SDS011;2463;49.948;8.472;2022-09-09T02:22:52;93.90;;;5.57;;
4895;SDS011;2463;49.948;8.472;2022-09-09T02:25:21;95.15;;;5.90;;
4895;SDS011;2463;49.948;8.472;2022-09-09T02:27:50;95.75;;;5.25;;
4895;SDS011;2463;49.948;8.472;2022-09-09T02:30:18;98.00;;;5.68;;
4895;SDS011;2463;49.948;8.472;2022-09-09T02:32:46;95.35;;;5.75;;
4895;SDS011;2463;49.948;8.472;2022-09-09T02:35:19;93.20;;;5.28;;
4895;SDS011;2463;49.948;8.472;2022-09-09T02:37:48;96.20;;;5.50;;
4895;SDS011;2463;49.948;8.472;2022-09-09T02:40:17;96.28;;;5.35;;
4895;SDS011;2463;49.948;8.472;2022-09-09T02:42:45;94.82;;;5.55;;
4895;SDS011;2463;49.948;8.472;2022-09-09T02:45:14;92.35;;;4.95;;
4895;SDS011;2463;49.948;8.472;2022-09-09T02:47:47;95.03;;;5.25;;
4895;SDS011;2463;49.948;8.472;2022-09-09T02:53:16;92.90;;;4.90;;
4895;SDS011;2463;49.948;8.472;2022-09-09T02:55:43;93.28;;;5.20;;
4895;SDS011;2463;49.948;8.472;2022-09-09T02:58:17;99.25;;;5.82;;
4895;SDS011;2463;49.948;8.472;2022-09-09T03:00:45;95.00;;;5.72;;
4895;SDS011;2463;49.948;8.472;2022-09-09T03:03:14;96.63;;;5.40;;
4895;SDS011;2463;49.948;8.472;2022-09-09T03:05:42;98.43;;;5.57;;
4895;SDS011;2463;49.948;8.472;2022-09-09T03:08:10;94.82;;;5.15;;
4895;SDS011;2463;49.948;8.472;2022-09-09T03:10:37;95.65;;;5.50;;
4895;SDS011;2463;49.948;8.472;2022-09-09T03:13:04;101.03;;;5.65;;
4895;SDS011;2463;49.948;8.472;2022-09-09T03:15:32;95.80;;;6.00;;
4895;SDS011;2463;49.948;8.472;2022-09-09T03:17:59;92.80;;;4.97;;
4895;SDS011;2463;49.948;8.472;2022-09-09T03:20:27;96.07;;;5.85;;
4895;SDS011;2463;49.948;8.472;2022-09-09T03:22:54;95.32;;;5.35;;
4895;SDS011;2463;49.948;8.472;2022-09-09T03:25:22;95.68;;;6.60;;
4895;SDS011;2463;49.948;8.472;2022-09-09T03:27:52;96.88;;;5.60;;
4895;SDS011;2463;49.948;8.472;2022-09-09T03:30:20;96.10;;;5.65;;
4895;SDS011;2463;49.948;8.472;2022-09-09T03:32:48;94.65;;;5.32;;
4895;SDS011;2463;49.948;8.472;2022-09-09T03:35:15;94.55;;;5.50;;
4895;SDS011;2463;49.948;8.472;2022-09-09T03:37:42;95.57;;;5.60;;
4895;SDS011;2463;49.948;8.472;2022-09-09T03:40:09;96.63;;;5.70;;
4895;SDS011;2463;49.948;8.472;2022-09-09T03:42:37;93.55;;;5.45;;
4895;SDS011;2463;49.948;8.472;2022-09-09T03:45:05;95.10;;;5.45;;
4895;SDS011;2463;49.948;8.472;2022-09-09T03:47:33;94.80;;;5.22;;
4895;SDS011;2463;49.948;8.472;2022-09-09T03:50:00;96.45;;;5.18;;
4895;SDS011;2463;49.948;8.472;2022-09-09T03:52:27;92.88;;;5.35;;
4895;SDS011;2463;49.948;8.472;2022-09-09T03:54:54;103.30;;;5.68;;
4895;SDS011;2463;49.948;8.472;2022-09-09T03:57:21;97.05;;;5.68;;
4895;SDS011;2463;49.948;8.472;2022-09-09T03:59:47;95.57;;;5.45;;
4895;SDS011;2463;49.948;8.472;2022-09-09T04:02:14;95.93;;;5.40;;
4895;SDS011;2463;49.948;8.472;2022-09-09T04:04:41;93.88;;;5.45;;
4895;SDS011;2463;49.948;8.472;2022-09-09T04:07:08;93.63;;;5.22;;
4895;SDS011;2463;49.948;8.472;2022-09-09T04:09:35;94.20;;;4.90;;
4895;SDS011;2463;49.948;8.472;2022-09-09T04:12:01;95.50;;;5.10;;
4895;SDS011;2463;49.948;8.472;2022-09-09T04:14:28;99.38;;;5.53;;
4895;SDS011;2463;49.948;8.472;2022-09-09T04:16:55;97.20;;;4.90;;
4895;SDS011;2463;49.948;8.472;2022-09-09T04:19:23;94.10;;;4.90;;
4895;SDS011;2463;49.948;8.472;2022-09-09T04:21:50;92.88;;;5.03;;
4895;SDS011;2463;49.948;8.472;2022-09-09T04:24:17;95.72;;;5.68;;
4895;SDS011;2463;49.948;8.472;2022-09-09T04:26:44;95.82;;;5.35;;
4895;SDS011;2463;49.948;8.472;2022-09-09T04:29:11;95.63;;;5.78;;
4895;SDS011;2463;49.948;8.472;2022-09-09T04:31:38;95.55;;;5.35;;
4895;SDS011;2463;49.948;8.472;2022-09-09T04:34:11;92.72;;;5.05;;
4895;SDS011;2463;49.948;8.472;2022-09-09T04:36:37;93.32;;;4.93;;
4895;SDS011;2463;49.948;8.472;2022-09-09T04:39:06;95.55;;;5.40;;
4895;SDS011;2463;49.948;8.472;2022-09-09T04:41:33;94.25;;;5.10;;
4895;SDS011;2463;49.948;8.472;2022-09-09T04:44:00;98.25;;;5.95;;
4895;SDS011;2463;49.948;8.472;2022-09-09T04:46:27;97.93;;;4.82;;
4895;SDS011;2463;49.948;8.472;2022-09-09T04:48:54;94.43;;;5.50;;
4895;SDS011;2463;49.948;8.472;2022-09-09T04:51:20;96.93;;;5.32;;
4895;SDS011;2463;49.948;8.472;2022-09-09T04:53:47;94.85;;;6.07;;
4895;SDS011;2463;49.948;8.472;2022-09-09T04:56:16;93.82;;;5.25;;
4895;SDS011;2463;49.948;8.472;2022-09-09T04:58:43;96.80;;;6.13;;
4895;SDS011;2463;49.948;8.472;2022-09-09T05:01:12;97.10;;;5.65;;
4895;SDS011;2463;49.948;8.472;2022-09-09T05:03:44;95.38;;;5.45;;
4895;SDS011;2463;49.948;8.472;2022-09-09T05:06:15;99.20;;;6.00;;
4895;SDS011;2463;49.948;8.472;2022-09-09T05:08:44;95.78;;;5.38;;
4895;SDS011;2463;49.948;8.472;2022-09-09T05:13:52;95.60;;;5.78;;
4895;SDS011;2463;49.948;8.472;2022-09-09T05:16:20;102.90;;;5.70;;
4895;SDS011;2463;49.948;8.472;2022-09-09T05:18:47;95.82;;;5.80;;
4895;SDS011;2463;49.948;8.472;2022-09-09T05:21:15;95.45;;;5.70;;
4895;SDS011;2463;49.948;8.472;2022-09-09T05:23:44;94.93;;;5.65;;
4895;SDS011;2463;49.948;8.472;2022-09-09T05:26:13;94.68;;;5.95;;
4895;SDS011;2463;49.948;8.472;2022-09-09T05:28:43;100.78;;;6.00;;
4895;SDS011;2463;49.948;8.472;2022-09-09T05:31:11;96.20;;;5.22;;
4895;SDS011;2463;49.948;8.472;2022-09-09T05:33:39;105.38;;;8.20;;
4895;SDS011;2463;49.948;8.472;2022-09-09T05:36:12;93.68;;;5.30;;
4895;SDS011;2463;49.948;8.472;2022-09-09T05:38:41;100.03;;;5.72;;
4895;SDS011;2463;49.948;8.472;2022-09-09T05:41:08;98.53;;;5.40;;
4895;SDS011;2463;49.948;8.472;2022-09-09T05:43:37;100.22;;;5.80;;
4895;SDS011;2463;49.948;8.472;2022-09-09T05:46:08;95.93;;;5.50;;
4895;SDS011;2463;49.948;8.472;2022-09-09T05:48:40;93.90;;;5.60;;
4895;SDS011;2463;49.948;8.472;2022-09-09T05:51:09;107.13;;;5.95;;
4895;SDS011;2463;49.948;8.472;2022-09-09T05:53:38;95.25;;;5.72;;
4895;SDS011;2463;49.948;8.472;2022-09-09T05:56:06;96.40;;;6.28;;
4895;SDS011;2463;49.948;8.472;2022-09-09T05:58:33;92.63;;;5.20;;
4895;SDS011;2463;49.948;8.472;2022-09-09T06:01:02;98.18;;;5.55;;
4895;SDS011;2463;49.948;8.472;2022-09-09T06:03:34;95.97;;;5.80;;
4895;SDS011;2463;49.948;8.472;2022-09-09T06:06:03;94.93;;;5.90;;
4895;SDS011;2463;49.948;8.472;2022-09-09T06:08:35;97.40;;;5.47;;
4895;SDS011;2463;49.948;8.472;2022-09-09T06:11:05;95.50;;;5.50;;
4895;SDS011;2463;49.948;8.472;2022-09-09T06:13:33;92.65;;;5.10;;
4895;SDS011;2463;49.948;8.472;2022-09-09T06:16:01;93.72;;;5.18;;
4895;SDS011;2463;49.948;8.472;2022-09-09T06:18:28;100.70;;;4.82;;
4895;SDS011;2463;49.948;8.472;2022-09-09T06:20:56;95.85;;;4.97;;
4895;SDS011;2463;49.948;8.472;2022-09-09T06:23:24;91.53;;;4.40;;
4895;SDS011;2463;49.948;8.472;2022-09-09T06:25:51;94.38;;;5.03;;
4895;SDS011;2463;49.948;8.472;2022-09-09T06:28:26;94.57;;;4.95;;
4895;SDS011;2463;49.948;8.472;2022-09-09T06:31:00;93.70;;;4.80;;
4895;SDS011;2463;49.948;8.472;2022-09-09T06:33:32;93.55;;;4.43;;
4895;SDS011;2463;49.948;8.472;2022-09-09T06:36:02;96.50;;;4.80;;
4895;SDS011;2463;49.948;8.472;2022-09-09T06:38:32;93.72;;;4.95;;
4895;SDS011;2463;49.948;8.472;2022-09-09T06:40:59;97.85;;;4.80;;
4895;SDS011;2463;49.948;8.472;2022-09-09T06:43:26;95.97;;;4.70;;
4895;SDS011;2463;49.948;8.472;2022-09-09T06:45:59;96.00;;;4.75;;
4895;SDS011;2463;49.948;8.472;2022-09-09T06:48:30;92.30;;;4.40;;
4895;SDS011;2463;49.948;8.472;2022-09-09T06:51:04;99.32;;;4.70;;
4895;SDS011;2463;49.948;8.472;2022-09-09T06:53:39;91.40;;;4.93;;
4895;SDS011;2463;49.948;8.472;2022-09-09T06:58:44;92.80;;;4.40;;
4895;SDS011;2463;49.948;8.472;2022-09-09T07:01:12;92.68;;;4.43;;
4895;SDS011;2463;49.948;8.472;2022-09-09T07:03:41;91.88;;;4.78;;
4895;SDS011;2463;49.948;8.472;2022-09-09T07:06:14;92.15;;;4.55;;
4895;SDS011;2463;49.948;8.472;2022-09-09T07:08:52;92.30;;;4.60;;
4895;SDS011;2463;49.948;8.472;2022-09-09T07:11:27;95.13;;;4.68;;
4895;SDS011;2463;49.948;8.472;2022-09-09T07:13:56;92.05;;;4.45;;
4895;SDS011;2463;49.948;8.472;2022-09-09T07:16:25;91.82;;;4.50;;
4895;SDS011;2463;49.948;8.472;2022-09-09T07:18:53;91.60;;;4.90;;
4895;SDS011;2463;49.948;8.472;2022-09-09T07:21:27;96.15;;;5.70;;
4895;SDS011;2463;49.948;8.472;2022-09-09T07:23:54;92.00;;;5.00;;
4895;SDS011;2463;49.948;8.472;2022-09-09T07:26:23;97.30;;;4.80;;
4895;SDS011;2463;49.948;8.472;2022-09-09T07:28:53;93.75;;;4.90;;
4895;SDS011;2463;49.948;8.472;2022-09-09T07:31:32;95.13;;;5.05;;
4895;SDS011;2463;49.948;8.472;2022-09-09T07:34:00;95.65;;;5.10;;
4895;SDS011;2463;49.948;8.472;2022-09-09T07:36:29;93.88;;;4.60;;
4895;SDS011;2463;49.948;8.472;2022-09-09T07:39:03;90.82;;;4.43;;
4895;SDS011;2463;49.948;8.472;2022-09-09T07:41:36;92.78;;;4.60;;
4895;SDS011;2463;49.948;8.472;2022-09-09T07:44:05;94.78;;;4.40;;
4895;SDS011;2463;49.948;8.472;2022-09-09T07:46:33;96.15;;;4.65;;
4895;SDS011;2463;49.948;8.472;2022-09-09T07:49:01;94.85;;;5.35;;
4895;SDS011;2463;49.948;8.472;2022-09-09T07:51:30;92.75;;;4.97;;
4895;SDS011;2463;49.948;8.472;2022-09-09T07:54:03;95.38;;;5.00;;
4895;SDS011;2463;49.948;8.472;2022-09-09T07:56:35;94.95;;;5.28;;
4895;SDS011;2463;49.948;8.472;2022-09-09T07:59:05;93.35;;;4.57;;
4895;SDS011;2463;49.948;8.472;2022-09-09T08:01:36;93.53;;;4.70;;
4895;SDS011;2463;49.948;8.472;2022-09-09T08:04:09;94.82;;;4.80;;
4895;SDS011;2463;49.948;8.472;2022-09-09T08:06:45;94.32;;;4.57;;
4895;SDS011;2463;49.948;8.472;2022-09-09T08:09:14;92.05;;;4.40;;
4895;SDS011;2463;49.948;8.472;2022-09-09T08:11:41;96.63;;;6.25;;
4895;SDS011;2463;49.948;8.472;2022-09-09T08:14:10;93.28;;;4.57;;
4895;SDS011;2463;49.948;8.472;2022-09-09T08:16:39;96.00;;;5.15;;
4895;SDS011;2463;49.948;8.472;2022-09-09T08:19:08;92.20;;;4.80;;
4895;SDS011;2463;49.948;8.472;2022-09-09T08:21:36;91.80;;;4.55;;
4895;SDS011;2463;49.948;8.472;2022-09-09T08:24:05;89.68;;;4.05;;
4895;SDS011;2463;49.948;8.472;2022-09-09T08:26:34;89.85;;;4.20;;
4895;SDS011;2463;49.948;8.472;2022-09-09T08:29:02;90.97;;;4.72;;
4895;SDS011;2463;49.948;8.472;2022-09-09T08:31:31;93.75;;;4.43;;
4895;SDS011;2463;49.948;8.472;2022-09-09T08:34:00;91.38;;;4.22;;
4895;SDS011;2463;49.948;8.472;2022-09-09T08:36:30;95.30;;;4.95;;
4895;SDS011;2463;49.948;8.472;2022-09-09T08:39:02;92.22;;;4.22;;
4895;SDS011;2463;49.948;8.472;2022-09-09T08:50:02;93.90;;;4.40;;
4895;SDS011;2463;49.948;8.472;2022-09-09T08:55:50;93.53;;;4.05;;
4895;SDS011;2463;49.948;8.472;2022-09-09T08:58:28;92.18;;;4.45;;
4895;SDS011;2463;49.948;8.472;2022-09-09T09:12:16;92.95;;;4.50;;
4895;SDS011;2463;49.948;8.472;2022-09-09T09:14:46;99.88;;;4.72;;
4895;SDS011;2463;49.948;8.472;2022-09-09T09:17:15;92.90;;;4.35;;
4895;SDS011;2463;49.948;8.472;2022-09-09T09:19:46;94.25;;;4.63;;
4895;SDS011;2463;49.948;8.472;2022-09-09T09:25:02;97.30;;;4.80;;
4895;SDS011;2463;49.948;8.472;2022-09-09T09:27:47;93.90;;;4.43;;
4895;SDS011;2463;49.948;8.472;2022-09-09T09:30:25;92.63;;;4.70;;
4895;SDS011;2463;49.948;8.472;2022-09-09T09:33:06;92.47;;;4.10;;
4895;SDS011;2463;49.948;8.472;2022-09-09T09:35:41;96.88;;;4.40;;
4895;SDS011;2463;49.948;8.472;2022-09-09T09:38:17;92.15;;;4.10;;
4895;SDS011;2463;49.948;8.472;2022-09-09T09:41:05;92.30;;;4.05;;
4895;SDS011;2463;49.948;8.472;2022-09-09T09:43:33;95.35;;;4.20;;
4895;SDS011;2463;49.948;8.472;2022-09-09T09:46:04;90.85;;;3.72;;
4895;SDS011;2463;49.948;8.472;2022-09-09T09:48:43;90.53;;;3.90;;
4895;SDS011;2463;49.948;8.472;2022-09-09T09:51:13;97.18;;;4.30;;
4895;SDS011;2463;49.948;8.472;2022-09-09T09:53:43;95.50;;;3.50;;
4895;SDS011;2463;49.948;8.472;2022-09-09T09:56:11;89.50;;;3.57;;
4895;SDS011;2463;49.948;8.472;2022-09-09T10:03:51;89.47;;;3.70;;
4895;SDS011;2463;49.948;8.472;2022-09-09T10:06:29;87.70;;;3.60;;
4895;SDS011;2463;49.948;8.472;2022-09-09T10:09:00;87.32;;;3.70;;
4895;SDS011;2463;49.948;8.472;2022-09-09T10:11:34;88.43;;;3.40;;
4895;SDS011;2463;49.948;8.472;2022-09-09T10:17:11;89.33;;;4.13;;
4895;SDS011;2463;49.948;8.472;2022-09-09T10:22:58;88.90;;;3.13;;
4895;SDS011;2463;49.948;8.472;2022-09-09T10:31:23;88.65;;;4.10;;
4895;SDS011;2463;49.948;8.472;2022-09-09T10:36:27;90.43;;;3.92;;
4895;SDS011;2463;49.948;8.472;2022-09-09T10:39:04;90.45;;;3.70;;
4895;SDS011;2463;49.948;8.472;2022-09-09T10:41:44;91.68;;;4.20;;
4895;SDS011;2463;49.948;8.472;2022-09-09T10:44:35;89.32;;;3.67;;
4895;SDS011;2463;49.948;8.472;2022-09-09T10:50:08;90.15;;;4.90;;
4895;SDS011;2463;49.948;8.472;2022-09-09T10:53:24;95.57;;;3.95;;
4895;SDS011;2463;49.948;8.472;2022-09-09T10:56:08;88.00;;;3.50;;
4895;SDS011;2463;49.948;8.472;2022-09-09T10:58:43;86.93;;;3.45;;
4895;SDS011;2463;49.948;8.472;2022-09-09T11:01:16;86.72;;;3.40;;
4895;SDS011;2463;49.948;8.472;2022-09-09T11:03:49;88.40;;;3.35;;
4895;SDS011;2463;49.948;8.472;2022-09-09T11:06:22;86.88;;;3.50;;
4895;SDS011;2463;49.948;8.472;2022-09-09T11:09:00;88.10;;;4.32;;
4895;SDS011;2463;49.948;8.472;2022-09-09T11:11:32;88.30;;;3.40;;
4895;SDS011;2463;49.948;8.472;2022-09-09T11:19:41;86.78;;;3.47;;
4895;SDS011;2463;49.948;8.472;2022-09-09T11:25:43;87.55;;;3.60;;
4895;SDS011;2463;49.948;8.472;2022-09-09T11:33:58;85.87;;;3.33;;
4895;SDS011;2463;49.948;8.472;2022-09-09T11:42:48;87.80;;;3.70;;
4895;SDS011;2463;49.948;8.472;2022-09-09T11:45:20;84.57;;;2.93;;
4895;SDS011;2463;49.948;8.472;2022-09-09T11:47:57;93.33;;;4.87;;
4895;SDS011;2463;49.948;8.472;2022-09-09T11:53:02;88.20;;;3.20;;
4895;SDS011;2463;49.948;8.472;2022-09-09T11:55:34;86.87;;;3.70;;
4895;SDS011;2463;49.948;8.472;2022-09-09T11:58:14;88.00;;;3.35;;
4895;SDS011;2463;49.948;8.472;2022-09-09T12:00:47;88.32;;;4.55;;
4895;SDS011;2463;49.948;8.472;2022-09-09T12:06:08;90.93;;;4.00;;
4895;SDS011;2463;49.948;8.472;2022-09-09T12:08:41;86.82;;;3.35;;
4895;SDS011;2463;49.948;8.472;2022-09-09T12:11:11;88.93;;;3.70;;
4895;SDS011;2463;49.948;8.472;2022-09-09T12:13:38;88.10;;;3.70;;
4895;SDS011;2463;49.948;8.472;2022-09-09T12:16:05;87.22;;;3.50;;
4895;SDS011;2463;49.948;8.472;2022-09-09T12:21:21;87.93;;;3.65;;
4895;SDS011;2463;49.948;8.472;2022-09-09T12:24:15;89.07;;;3.92;;
4895;SDS011;2463;49.948;8.472;2022-09-09T12:27:11;89.22;;;3.70;;
4895;SDS011;2463;49.948;8.472;2022-09-09T12:29:58;89.00;;;3.30;;
4895;SDS011;2463;49.948;8.472;2022-09-09T12:32:29;89.63;;;3.53;;
4895;SDS011;2463;49.948;8.472;2022-09-09T12:34:59;88.20;;;3.42;;
4895;SDS011;2463;49.948;8.472;2022-09-09T12:40:05;91.45;;;3.55;;
4895;SDS011;2463;49.948;8.472;2022-09-09T12:42:32;88.68;;;3.53;;
4895;SDS011;2463;49.948;8.472;2022-09-09T12:45:15;87.28;;;3.42;;
4895;SDS011;2463;49.948;8.472;2022-09-09T12:50:34;88.63;;;3.25;;
4895;SDS011;2463;49.948;8.472;2022-09-09T12:53:10;88.78;;;3.63;;
4895;SDS011;2463;49.948;8.472;2022-09-09T12:56:37;88.38;;;3.70;;
4895;SDS011;2463;49.948;8.472;2022-09-09T12:58:46;89.35;;;3.67;;
4895;SDS011;2463;49.948;8.472;2022-09-09T13:01:22;91.07;;;4.15;;
4895;SDS011;2463;49.948;8.472;2022-09-09T13:04:02;88.13;;;3.30;;
4895;SDS011;2463;49.948;8.472;2022-09-09T13:06:29;89.95;;;3.50;;
4895;SDS011;2463;49.948;8.472;2022-09-09T13:08:58;90.10;;;3.45;;
4895;SDS011;2463;49.948;8.472;2022-09-09T13:11:34;89.53;;;3.50;;
4895;SDS011;2463;49.948;8.472;2022-09-09T13:14:18;89.93;;;3.60;;
4895;SDS011;2463;49.948;8.472;2022-09-09T13:16:55;88.57;;;3.42;;
4895;SDS011;2463;49.948;8.472;2022-09-09T13:19:24;89.72;;;3.60;;
4895;SDS011;2463;49.948;8.472;2022-09-09T13:21:54;88.93;;;3.70;;
4895;SDS011;2463;49.948;8.472;2022-09-09T13:24:39;89.82;;;3.50;;
4895;SDS011;2463;49.948;8.472;2022-09-09T13:29:55;88.85;;;3.40;;
4895;SDS011;2463;49.948;8.472;2022-09-09T13:32:23;88.32;;;3.30;;
4895;SDS011;2463;49.948;8.472;2022-09-09T13:34:56;87.47;;;3.25;;
4895;SDS011;2463;49.948;8.472;2022-09-09T13:40:02;85.93;;;3.00;;
4895;SDS011;2463;49.948;8.472;2022-09-09T13:42:32;88.25;;;3.53;;
4895;SDS011;2463;49.948;8.472;2022-09-09T13:45:03;87.93;;;3.30;;
4895;SDS011;2463;49.948;8.472;2022-09-09T13:47:36;87.22;;;3.20;;
4895;SDS011;2463;49.948;8.472;2022-09-09T13:52:51;87.68;;;3.30;;
4895;SDS011;2463;49.948;8.472;2022-09-09T13:55:20;89.40;;;3.58;;
4895;SDS011;2463;49.948;8.472;2022-09-09T13:57:55;86.95;;;3.05;;
4895;SDS011;2463;49.948;8.472;2022-09-09T14:00:28;87.47;;;3.50;;
4895;SDS011;2463;49.948;8.472;2022-09-09T14:02:57;92.00;;;3.35;;
4895;SDS011;2463;49.948;8.472;2022-09-09T14:05:26;87.45;;;3.60;;
4895;SDS011;2463;49.948;8.472;2022-09-09T14:07:53;89.50;;;3.25;;
4895;SDS011;2463;49.948;8.472;2022-09-09T14:10:20;87.70;;;3.30;;
4895;SDS011;2463;49.948;8.472;2022-09-09T14:12:48;88.28;;;3.55;;
4895;SDS011;2463;49.948;8.472;2022-09-09T14:15:14;87.13;;;3.03;;
4895;SDS011;2463;49.948;8.472;2022-09-09T14:17:42;88.07;;;3.60;;
4895;SDS011;2463;49.948;8.472;2022-09-09T14:20:09;89.57;;;3.35;;
4895;SDS011;2463;49.948;8.472;2022-09-09T14:22:37;86.88;;;3.42;;
4895;SDS011;2463;49.948;8.472;2022-09-09T14:25:05;90.05;;;4.93;;
4895;SDS011;2463;49.948;8.472;2022-09-09T14:27:32;87.78;;;3.30;;
4895;SDS011;2463;49.948;8.472;2022-09-09T14:29:59;87.15;;;3.50;;
4895;SDS011;2463;49.948;8.472;2022-09-09T14:32:26;88.28;;;3.30;;
4895;SDS011;2463;49.948;8.472;2022-09-09T14:34:53;87.13;;;3.28;;
4895;SDS011;2463;49.948;8.472;2022-09-09T14:37:20;87.97;;;3.30;;
4895;SDS011;2463;49.948;8.472;2022-09-09T14:39:47;87.75;;;3.30;;
4895;SDS011;2463;49.948;8.472;2022-09-09T14:42:16;88.90;;;3.60;;
4895;SDS011;2463;49.948;8.472;2022-09-09T14:44:43;88.22;;;3.47;;
4895;SDS011;2463;49.948;8.472;2022-09-09T14:47:10;89.20;;;3.42;;
4895;SDS011;2463;49.948;8.472;2022-09-09T14:49:37;88.45;;;3.30;;
4895;SDS011;2463;49.948;8.472;2022-09-09T14:52:07;91.75;;;3.45;;
4895;SDS011;2463;49.948;8.472;2022-09-09T14:54:35;89.28;;;3.35;;
4895;SDS011;2463;49.948;8.472;2022-09-09T14:57:02;88.68;;;3.35;;
4895;SDS011;2463;49.948;8.472;2022-09-09T14:59:28;89.70;;;3.40;;
4895;SDS011;2463;49.948;8.472;2022-09-09T15:01:55;91.78;;;3.47;;
4895;SDS011;2463;49.948;8.472;2022-09-09T15:04:22;90.15;;;3.85;;
4895;SDS011;2463;49.948;8.472;2022-09-09T15:06:49;91.95;;;3.85;;
4895;SDS011;2463;49.948;8.472;2022-09-09T15:09:18;88.97;;;3.90;;
4895;SDS011;2463;49.948;8.472;2022-09-09T15:11:45;88.95;;;3.67;;
4895;SDS011;2463;49.948;8.472;2022-09-09T15:14:11;89.55;;;3.72;;
4895;SDS011;2463;49.948;8.472;2022-09-09T15:16:38;88.00;;;3.35;;
4895;SDS011;2463;49.948;8.472;2022-09-09T15:21:34;87.93;;;3.20;;
4895;SDS011;2463;49.948;8.472;2022-09-09T15:24:02;89.75;;;3.85;;
4895;SDS011;2463;49.948;8.472;2022-09-09T15:26:30;89.47;;;3.60;;
4895;SDS011;2463;49.948;8.472;2022-09-09T15:28:57;87.72;;;3.20;;
4895;SDS011;2463;49.948;8.472;2022-09-09T15:31:26;91.60;;;3.70;;
4895;SDS011;2463;49.948;8.472;2022-09-09T15:33:59;88.72;;;3.65;;
4895;SDS011;2463;49.948;8.472;2022-09-09T15:36:28;89.68;;;3.63;;
4895;SDS011;2463;49.948;8.472;2022-09-09T15:39:01;89.13;;;3.70;;
4895;SDS011;2463;49.948;8.472;2022-09-09T15:41:29;88.22;;;3.53;;
4895;SDS011;2463;49.948;8.472;2022-09-09T15:43:57;91.15;;;4.47;;
4895;SDS011;2463;49.948;8.472;2022-09-09T15:47:08;91.80;;;4.07;;
4895;SDS011;2463;49.948;8.472;2022-09-09T15:49:16;88.38;;;3.50;;
4895;SDS011;2463;49.948;8.472;2022-09-09T15:51:46;88.95;;;3.70;;
4895;SDS011;2463;49.948;8.472;2022-09-09T15:54:17;89.28;;;3.80;;
4895;SDS011;2463;49.948;8.472;2022-09-09T15:56:46;89.38;;;3.50;;
4895;SDS011;2463;49.948;8.472;2022-09-09T15:59:16;91.65;;;3.88;;
4895;SDS011;2463;49.948;8.472;2022-09-09T16:01:42;93.60;;;3.80;;
4895;SDS011;2463;49.948;8.472;2022-09-09T16:04:10;92.85;;;3.60;;
4895;SDS011;2463;49.948;8.472;2022-09-09T16:06:36;92.25;;;3.80;;
4895;SDS011;2463;49.948;8.472;2022-09-09T16:09:04;90.13;;;4.18;;
4895;SDS011;2463;49.948;8.472;2022-09-09T16:11:36;89.32;;;3.78;;
4895;SDS011;2463;49.948;8.472;2022-09-09T16:14:03;89.43;;;3.50;;
4895;SDS011;2463;49.948;8.472;2022-09-09T16:16:32;91.95;;;4.15;;
4895;SDS011;2463;49.948;8.472;2022-09-09T16:19:08;90.13;;;3.50;;
4895;SDS011;2463;49.948;8.472;2022-09-09T16:21:37;90.38;;;3.72;;
4895;SDS011;2463;49.948;8.472;2022-09-09T16:24:09;88.18;;;3.45;;
4895;SDS011;2463;49.948;8.472;2022-09-09T16:26:39;93.15;;;3.67;;
4895;SDS011;2463;49.948;8.472;2022-09-09T16:29:11;88.72;;;3.83;;
4895;SDS011;2463;49.948;8.472;2022-09-09T16:31:40;88.47;;;3.50;;
4895;SDS011;2463;49.948;8.472;2022-09-09T16:34:08;89.15;;;3.60;;
4895;SDS011;2463;49.948;8.472;2022-09-09T16:36:36;92.43;;;3.75;;
4895;SDS011;2463;49.948;8.472;2022-09-09T16:39:06;90.03;;;4.20;;
4895;SDS011;2463;49.948;8.472;2022-09-09T16:41:35;90.88;;;3.70;;
4895;SDS011;2463;49.948;8.472;2022-09-09T16:44:03;90.13;;;3.72;;
4895;SDS011;2463;49.948;8.472;2022-09-09T16:46:33;89.22;;;3.60;;
4895;SDS011;2463;49.948;8.472;2022-09-09T16:49:02;89.82;;;4.10;;
4895;SDS011;2463;49.948;8.472;2022-09-09T16:51:31;89.43;;;3.70;;
4895;SDS011;2463;49.948;8.472;2022-09-09T16:54:19;90.53;;;3.70;;
4895;SDS011;2463;49.948;8.472;2022-09-09T16:56:47;91.78;;;3.90;;
4895;SDS011;2463;49.948;8.472;2022-09-09T16:59:15;90.13;;;3.60;;
4895;SDS011;2463;49.948;8.472;2022-09-09T17:01:43;88.68;;;3.50;;
4895;SDS011;2463;49.948;8.472;2022-09-09T17:04:16;90.68;;;4.10;;
4895;SDS011;2463;49.948;8.472;2022-09-09T17:06:47;89.95;;;3.65;;
4895;SDS011;2463;49.948;8.472;2022-09-09T17:09:15;91.85;;;3.80;;
4895;SDS011;2463;49.948;8.472;2022-09-09T17:11:42;88.53;;;3.50;;
4895;SDS011;2463;49.948;8.472;2022-09-09T17:14:11;90.50;;;3.75;;
4895;SDS011;2463;49.948;8.472;2022-09-09T17:16:40;91.57;;;4.50;;
4895;SDS011;2463;49.948;8.472;2022-09-09T17:19:07;97.63;;;4.65;;
4895;SDS011;2463;49.948;8.472;2022-09-09T17:21:35;89.47;;;4.00;;
4895;SDS011;2463;49.948;8.472;2022-09-09T17:24:19;92.93;;;3.95;;
4895;SDS011;2463;49.948;8.472;2022-09-09T17:26:47;93.88;;;4.20;;
4895;SDS011;2463;49.948;8.472;2022-09-09T17:29:14;89.43;;;3.90;;
4895;SDS011;2463;49.948;8.472;2022-09-09T17:31:42;90.60;;;3.67;;
4895;SDS011;2463;49.948;8.472;2022-09-09T17:34:09;91.25;;;3.97;;
4895;SDS011;2463;49.948;8.472;2022-09-09T17:36:36;93.10;;;4.75;;
4895;SDS011;2463;49.948;8.472;2022-09-09T17:39:04;92.95;;;5.10;;
4895;SDS011;2463;49.948;8.472;2022-09-09T17:41:35;94.78;;;6.30;;
4895;SDS011;2463;49.948;8.472;2022-09-09T17:44:04;94.47;;;6.55;;
4895;SDS011;2463;49.948;8.472;2022-09-09T17:46:37;98.35;;;6.60;;